Time;durP1;ratioP1;P1;durP2;ratioP2;P2;SDS_P1;SDS_P2;PMS_P1;PMS_P2;Temp;Humidity;BMP_temperature;BMP_pressure;BME280_temperature;BME280_humidity;BME280_pressure;Samples;Min_cycle;Max_cycle;Signal;HPM_P1;HPM_P2
2023/05/15 00:00:43;;;;;;;14.10;2.15;;;10.30;99.90;;;;;;5034441;28;20419;-82
2023/05/15 00:03:08;;;;;;;6.63;2.65;;;10.70;99.90;;;;;;5034213;28;20051;-83
2023/05/15 00:05:34;;;;;;;2.40;2.05;;;10.30;99.90;;;;;;5042492;28;20072;-83
2023/05/15 00:08:00;;;;;;;1.98;1.85;;;10.30;99.90;;;;;;5049098;28;20045;-83
2023/05/15 00:10:25;;;;;;;3.00;2.67;;;10.30;99.90;;;;;;5033487;28;20050;-84
2023/05/15 00:12:51;;;;;;;14.13;2.78;;;10.40;99.90;;;;;;5033134;28;20107;-83
2023/05/15 00:15:16;;;;;;;4.03;2.22;;;10.30;99.90;;;;;;5037025;28;20037;-84
2023/05/15 00:17:42;;;;;;;3.30;1.80;;;10.30;99.90;;;;;;5052970;28;20056;-82
2023/05/15 00:20:08;;;;;;;5.57;2.72;;;10.30;99.90;;;;;;5052493;28;20051;-83
2023/05/15 00:22:34;;;;;;;3.42;2.08;;;10.30;99.90;;;;;;5051894;28;20099;-83
2023/05/15 00:25:00;;;;;;;3.45;1.88;;;10.20;99.90;;;;;;5051220;28;20048;-83
2023/05/15 00:27:26;;;;;;;1.92;0.88;;;10.20;99.90;;;;;;5035703;28;20059;-84
2023/05/15 00:29:52;;;;;;;3.78;2.17;;;10.20;99.90;;;;;;5034552;28;20132;-82
2023/05/15 00:32:18;;;;;;;4.40;3.47;;;10.20;99.90;;;;;;5033363;28;20068;-85
2023/05/15 00:34:43;;;;;;;2.72;1.65;;;10.10;99.90;;;;;;5037820;28;20037;-85
2023/05/15 00:37:09;;;;;;;5.60;2.58;;;10.10;99.90;;;;;;5053000;28;20119;-83
2023/05/15 00:39:35;;;;;;;4.25;3.53;;;10.10;99.90;;;;;;5039812;28;20117;-84
2023/05/15 00:42:02;;;;;;;4.20;2.65;;;10.10;99.90;;;;;;5034606;28;20056;-84
2023/05/15 00:44:30;;;;;;;3.17;2.70;;;10.00;99.90;;;;;;5036204;28;20072;-85
2023/05/15 00:46:58;;;;;;;3.95;2.70;;;10.90;99.90;;;;;;5053529;28;20067;-84
2023/05/15 00:49:26;;;;;;;1.75;1.60;;;10.00;99.90;;;;;;5053715;28;20052;-83
2023/05/15 00:51:52;;;;;;;2.70;1.35;;;10.10;99.90;;;;;;5053098;28;20313;-83
2023/05/15 00:54:18;;;;;;;1.58;1.20;;;10.10;99.90;;;;;;5053498;28;20049;-83
2023/05/15 00:56:44;;;;;;;3.63;2.42;;;10.10;99.90;;;;;;5050831;28;20392;-84
2023/05/15 00:59:12;;;;;;;2.38;2.17;;;10.10;99.90;;;;;;5054582;28;20110;-83
2023/05/15 01:01:38;;;;;;;6.40;1.40;;;10.10;99.90;;;;;;5057733;28;20124;-82
2023/05/15 01:04:04;;;;;;;2.55;1.88;;;10.20;99.90;;;;;;5058870;28;20507;-83
2023/05/15 01:06:30;;;;;;;4.35;3.22;;;10.10;99.90;;;;;;5056420;28;20403;-83
2023/05/15 01:09:00;;;;;;;2.45;1.63;;;10.20;99.90;;;;;;5056248;28;20123;-83
2023/05/15 01:11:34;;;;;;;6.13;2.78;;;10.10;99.90;;;;;;5056296;28;20041;-84
2023/05/15 01:14:04;;;;;;;2.92;2.50;;;10.20;99.90;;;;;;5056013;28;20060;-83
2023/05/15 01:16:31;;;;;;;1.80;1.55;;;10.10;99.90;;;;;;5041689;28;20049;-84
2023/05/15 01:18:56;;;;;;;3.42;1.50;;;10.10;99.90;;;;;;5034659;28;20037;-83
2023/05/15 01:21:31;;;;;;;3.58;2.78;;;10.10;99.90;;;;;;5033672;28;20049;-84
2023/05/15 01:24:24;;;;;;;3.50;2.33;;;10.10;99.90;;;;;;5034158;28;20052;-84
2023/05/15 01:27:12;;;;;;;3.15;1.77;;;10.20;99.90;;;;;;5042934;28;20153;-84
2023/05/15 01:29:58;;;;;;;8.70;2.80;;;10.20;99.90;;;;;;5044760;28;20076;-84
2023/05/15 01:32:53;;;;;;;2.80;2.28;;;10.10;99.90;;;;;;5043938;28;20126;-84
2023/05/15 01:35:29;;;;;;;1.15;1.05;;;10.10;99.90;;;;;;5046507;28;20053;-85
2023/05/15 01:38:07;;;;;;;6.45;2.95;;;10.10;99.90;;;;;;5032013;28;20049;-85
2023/05/15 01:40:33;;;;;;;4.72;2.58;;;10.10;99.90;;;;;;5039299;28;20136;-84
2023/05/15 01:43:06;;;;;;;3.22;2.92;;;10.10;99.90;;;;;;5040216;28;20238;-83
2023/05/15 01:45:32;;;;;;;3.63;2.67;;;10.10;99.90;;;;;;5047627;28;20048;-84
2023/05/15 01:48:00;;;;;;;12.02;4.50;;;10.10;99.90;;;;;;5060386;28;20049;-83
2023/05/15 01:50:29;;;;;;;4.05;1.88;;;10.10;99.90;;;;;;5058428;28;20476;-84
2023/05/15 01:52:57;;;;;;;0.52;0.52;;;10.10;99.90;;;;;;5060818;28;20423;-82
2023/05/15 01:55:25;;;;;;;2.00;1.73;;;10.10;99.90;;;;;;5046100;28;20380;-83
2023/05/15 01:57:51;;;;;;;7.60;2.92;;;10.10;99.90;;;;;;5059513;28;20060;-83
2023/05/15 02:00:18;;;;;;;1.38;1.27;;;10.10;99.90;;;;;;5055434;28;20045;-82
2023/05/15 02:02:45;;;;;;;2.92;1.30;;;10.10;99.90;;;;;;5052182;28;20420;-85
2023/05/15 02:05:12;;;;;;;4.65;1.55;;;10.10;99.90;;;;;;5051097;28;20050;-84
2023/05/15 02:07:41;;;;;;;2.10;1.33;;;10.10;99.90;;;;;;5033964;28;20080;-84
2023/05/15 02:10:08;;;;;;;2.42;2.03;;;10.00;99.90;;;;;;5032297;28;20106;-84
2023/05/15 02:12:34;;;;;;;1.88;1.23;;;10.00;99.90;;;;;;5030883;28;20045;-83
2023/05/15 02:15:03;;;;;;;1.92;1.67;;;10.00;99.90;;;;;;5033094;28;20072;-83
2023/05/15 02:17:28;;;;;;;4.25;2.10;;;10.00;99.90;;;;;;5032117;28;20053;-84
2023/05/15 02:19:54;;;;;;;2.95;2.38;;;10.70;99.90;;;;;;5032643;28;20041;-84
2023/05/15 02:22:20;;;;;;;2.75;2.20;;;11.20;99.90;;;;;;5032481;28;20256;-84
2023/05/15 02:24:45;;;;;;;2.80;1.80;;;11.00;99.90;;;;;;5036330;28;20106;-84
2023/05/15 02:27:28;;;;;;;4.43;2.50;;;10.00;99.90;;;;;;5045297;28;20104;-84
2023/05/15 02:30:00;;;;;;;9.95;1.92;;;10.10;99.90;;;;;;5033246;28;20132;-84
2023/05/15 02:32:38;;;;;;;2.72;1.80;;;10.10;99.90;;;;;;5032855;28;20057;-83
2023/05/15 02:35:25;;;;;;;2.53;2.17;;;10.00;99.90;;;;;;5038940;28;20071;-84
2023/05/15 02:37:55;;;;;;;1.60;1.50;;;10.00;99.90;;;;;;5050860;28;20132;-83
2023/05/15 02:40:23;;;;;;;2.97;2.58;;;10.00;99.90;;;;;;5052436;28;20045;-84
2023/05/15 02:42:52;;;;;;;5.15;3.40;;;10.00;99.90;;;;;;5052630;28;20072;-83
2023/05/15 02:45:21;;;;;;;2.90;1.95;;;10.00;99.90;;;;;;5044548;28;20567;-85
2023/05/15 02:47:49;;;;;;;1.60;1.33;;;10.00;99.90;;;;;;5032427;28;20057;-84
2023/05/15 02:50:16;;;;;;;4.10;1.27;;;10.00;99.90;;;;;;5032712;28;20396;-84
2023/05/15 02:52:42;;;;;;;4.35;1.48;;;10.20;99.90;;;;;;5031484;28;20052;-83
2023/05/15 02:55:08;;;;;;;2.63;2.42;;;9.90;99.90;;;;;;5038344;28;20073;-83
2023/05/15 02:57:33;;;;;;;6.28;3.08;;;9.90;99.90;;;;;;5050968;28;20065;-84
2023/05/15 02:59:59;;;;;;;1.90;1.60;;;9.90;99.90;;;;;;5052215;28;20041;-84
2023/05/15 03:02:25;;;;;;;3.75;2.63;;;9.90;99.90;;;;;;5050926;28;20049;-84
2023/05/15 03:04:51;;;;;;;9.70;3.72;;;9.90;99.90;;;;;;5050805;28;20036;-83
2023/05/15 03:07:16;;;;;;;3.13;1.88;;;9.80;99.90;;;;;;5043183;28;20565;-83
2023/05/15 03:09:42;;;;;;;5.57;2.25;;;9.80;99.90;;;;;;5032317;28;20492;-83
2023/05/15 03:12:08;;;;;;;2.67;2.03;;;9.80;99.90;;;;;;5032902;28;20049;-83
2023/05/15 03:14:34;;;;;;;5.20;1.58;;;9.80;99.90;;;;;;5031881;28;20045;-84
2023/05/15 03:16:59;;;;;;;2.38;1.73;;;9.80;99.90;;;;;;5032638;28;20069;-83
2023/05/15 03:19:25;;;;;;;2.70;1.67;;;9.80;99.90;;;;;;5033623;28;20060;-84
2023/05/15 03:21:51;;;;;;;2.20;1.65;;;9.80;99.90;;;;;;5033912;28;20116;-83
2023/05/15 03:24:16;;;;;;;3.95;2.10;;;9.80;99.90;;;;;;5033015;28;20101;-84
2023/05/15 03:26:43;;;;;;;1.42;1.33;;;9.80;99.90;;;;;;5031484;28;20053;-85
2023/05/15 03:29:09;;;;;;;0.95;0.95;;;9.70;99.90;;;;;;5031612;28;20076;-83
2023/05/15 03:31:35;;;;;;;1.35;1.25;;;9.70;99.90;;;;;;5038119;28;20082;-83
2023/05/15 03:34:01;;;;;;;3.92;2.65;;;9.80;99.90;;;;;;5050420;28;20073;-83
2023/05/15 03:36:27;;;;;;;1.80;1.60;;;9.80;99.90;;;;;;5049543;28;20045;-85
2023/05/15 03:38:52;;;;;;;3.15;2.22;;;9.80;99.90;;;;;;5051751;28;20040;-84
2023/05/15 03:41:18;;;;;;;2.38;1.92;;;9.80;99.90;;;;;;5050010;28;20102;-83
2023/05/15 03:43:44;;;;;;;3.03;1.80;;;9.70;99.90;;;;;;5051491;28;20044;-82
2023/05/15 03:46:10;;;;;;;3.88;2.28;;;9.60;99.90;;;;;;5037728;28;20449;-84
2023/05/15 03:48:35;;;;;;;2.83;2.28;;;9.60;99.90;;;;;;5029206;28;20550;-83
2023/05/15 03:51:01;;;;;;;2.53;2.33;;;9.60;99.90;;;;;;5033583;28;20052;-83
2023/05/15 03:53:27;;;;;;;7.57;3.25;;;9.60;99.90;;;;;;5035960;28;20037;-84
2023/05/15 03:55:53;;;;;;;2.30;1.95;;;9.50;99.90;;;;;;5035458;28;20608;-83
2023/05/15 03:58:18;;;;;;;3.70;3.08;;;9.50;99.90;;;;;;5033335;28;20499;-84
2023/05/15 04:00:44;;;;;;;4.28;2.58;;;9.50;99.90;;;;;;5034946;28;20045;-84
2023/05/15 04:03:10;;;;;;;2.50;2.15;;;9.40;99.90;;;;;;5033340;28;20065;-83
2023/05/15 04:05:35;;;;;;;1.30;1.20;;;9.40;99.90;;;;;;5033768;28;20480;-83
2023/05/15 04:08:01;;;;;;;2.63;1.95;;;9.90;99.90;;;;;;5033532;28;20041;-84
2023/05/15 04:10:28;;;;;;;3.83;1.58;;;9.40;99.90;;;;;;5032393;28;20053;-85
2023/05/15 04:12:53;;;;;;;2.13;1.38;;;9.40;99.90;;;;;;5031674;28;20057;-84
2023/05/15 04:15:21;;;;;;;2.72;2.40;;;9.30;99.90;;;;;;5032115;28;20568;-84
2023/05/15 04:17:52;;;;;;;2.38;1.58;;;9.30;99.90;;;;;;5033326;28;20069;-84
2023/05/15 04:20:20;;;;;;;1.38;1.20;;;9.30;99.90;;;;;;5053667;28;20049;-83
2023/05/15 04:22:46;;;;;;;11.02;2.65;;;9.40;99.90;;;;;;5053833;28;20414;-84
2023/05/15 04:25:13;;;;;;;3.35;2.47;;;9.30;99.90;;;;;;5051534;28;20041;-84
2023/05/15 04:27:40;;;;;;;5.63;1.77;;;9.30;99.90;;;;;;5052107;28;20092;-84
2023/05/15 04:30:07;;;;;;;2.70;2.15;;;9.30;99.90;;;;;;5053144;28;20041;-84
2023/05/15 04:32:33;;;;;;;1.48;1.38;;;9.30;99.90;;;;;;5053848;28;20048;-84
2023/05/15 04:35:08;;;;;;;4.75;3.67;;;9.30;99.90;;;;;;5051360;28;20048;-83
2023/05/15 04:37:33;;;;;;;2.13;1.65;;;9.20;99.90;;;;;;5057212;28;20056;-83
2023/05/15 04:39:59;;;;;;;2.05;1.55;;;9.20;99.90;;;;;;5044735;28;20042;-83
2023/05/15 04:42:25;;;;;;;5.40;3.33;;;9.20;99.90;;;;;;5045544;28;20480;-83
2023/05/15 04:44:51;;;;;;;3.50;3.17;;;9.30;99.90;;;;;;5049986;28;20141;-84
2023/05/15 04:47:16;;;;;;;2.53;1.33;;;9.20;99.90;;;;;;5051565;28;20037;-83
2023/05/15 04:49:42;;;;;;;1.05;0.88;;;9.20;99.90;;;;;;5052003;28;20032;-83
2023/05/15 04:52:08;;;;;;;2.28;1.05;;;9.30;99.90;;;;;;5051550;28;20072;-85
2023/05/15 04:54:33;;;;;;;1.95;1.67;;;9.40;99.90;;;;;;5051630;28;20114;-84
2023/05/15 04:56:59;;;;;;;1.75;1.65;;;9.40;99.90;;;;;;5050598;28;20352;-84
2023/05/15 04:59:26;;;;;;;2.30;1.90;;;9.40;99.90;;;;;;5039145;28;20127;-84
2023/05/15 05:01:51;;;;;;;0.77;0.77;;;9.50;99.90;;;;;;5035023;28;20073;-85
2023/05/15 05:04:18;;;;;;;4.72;1.45;;;9.90;99.90;;;;;;5036217;28;20518;-84
2023/05/15 05:06:45;;;;;;;3.38;2.17;;;9.50;99.90;;;;;;5051357;28;20041;-82
2023/05/15 05:09:10;;;;;;;1.35;0.75;;;9.50;99.90;;;;;;5048428;28;20044;-83
2023/05/15 05:11:38;;;;;;;1.17;1.08;;;9.50;99.90;;;;;;5050742;28;20052;-83
2023/05/15 05:14:14;;;;;;;1.90;1.75;;;9.60;99.90;;;;;;5038751;28;20369;-85
2023/05/15 05:16:40;;;;;;;3.13;1.20;;;9.70;99.90;;;;;;5048708;28;20048;-84
2023/05/15 05:19:06;;;;;;;1.73;1.58;;;9.80;99.90;;;;;;5049857;28;20473;-84
2023/05/15 05:21:32;;;;;;;1.92;1.75;;;9.80;99.90;;;;;;5050994;28;20215;-85
2023/05/15 05:23:58;;;;;;;2.88;2.50;;;9.90;99.90;;;;;;5053615;28;20127;-84
2023/05/15 05:26:25;;;;;;;1.77;1.30;;;10.00;25.50;;;;;;5034984;28;20536;-84
2023/05/15 05:28:51;;;;;;;3.95;1.48;;;11.20;51.60;;;;;;5028784;28;20071;-84
2023/05/15 05:31:17;;;;;;;1.08;0.65;;;11.40;21.60;;;;;;5026704;28;20488;-83
2023/05/15 05:33:42;;;;;;;1.73;1.15;;;10.40;1.00;;;;;;5029115;28;20102;-83
2023/05/15 05:36:08;;;;;;;2.28;2.03;;;10.50;1.00;;;;;;5045360;28;20041;-83
2023/05/15 05:38:35;;;;;;;1.52;1.42;;;10.60;99.90;;;;;;5050529;28;20084;-83
2023/05/15 05:41:01;;;;;;;0.95;0.93;;;10.90;99.90;;;;;;5052207;28;20511;-82
2023/05/15 05:43:27;;;;;;;1.77;1.00;;;11.40;99.90;;;;;;5051092;28;20073;-82
2023/05/15 05:45:53;;;;;;;3.38;2.10;;;12.00;17.40;;;;;;5049456;28;20425;-84
2023/05/15 05:48:19;;;;;;;1.80;1.35;;;12.50;99.90;;;;;;5049727;28;20408;-84
2023/05/15 05:50:44;;;;;;;1.05;0.93;;;12.80;99.90;;;;;;5048629;28;20041;-84
2023/05/15 05:53:10;;;;;;;1.17;0.88;;;13.10;99.90;;;;;;5047861;28;20052;-83
2023/05/15 05:55:36;;;;;;;8.30;0.85;;;13.60;99.90;;;;;;5049044;28;20120;-84
2023/05/15 05:58:03;;;;;;;3.00;1.80;;;14.30;99.90;;;;;;5049252;28;20075;-84
2023/05/15 06:00:28;;;;;;;1.70;1.25;;;14.80;99.90;;;;;;5048283;28;20095;-83
2023/05/15 06:02:57;;;;;;;1.92;1.50;;;15.40;1.00;;;;;;5046070;28;20041;-84
2023/05/15 06:05:26;;;;;;;1.10;0.73;;;15.60;1.00;;;;;;5040512;28;20110;-83
2023/05/15 06:07:52;;;;;;;4.93;2.00;;;15.60;99.90;;;;;;5042832;28;20045;-83
2023/05/15 06:10:18;;;;;;;0.77;0.75;;;15.20;99.90;;;;;;5036423;28;20483;-85
2023/05/15 06:12:44;;;;;;;0.15;0.15;;;15.00;99.90;;;;;;5040561;28;20045;-83
2023/05/15 06:15:10;;;;;;;0.57;0.57;;;16.10;1.00;;;;;;5035686;28;20098;-84
2023/05/15 06:17:36;;;;;;;0.82;0.70;;;15.70;99.90;;;;;;5033494;28;20052;-84
2023/05/15 06:20:07;;;;;;;1.02;0.85;;;15.90;99.90;;;;;;5037003;28;20048;-84
2023/05/15 06:22:33;;;;;;;2.00;1.40;;;16.30;99.90;;;;;;5046288;28;20063;-83
2023/05/15 06:24:58;;;;;;;1.25;0.65;;;16.60;99.90;;;;;;5048634;28;20080;-83
2023/05/15 06:27:28;;;;;;;1.25;0.52;;;17.50;99.90;;;;;;5046537;28;20130;-84
2023/05/15 06:29:54;;;;;;;1.08;0.98;;;17.90;99.90;;;;;;5041219;28;20041;-84
2023/05/15 06:32:20;;;;;;;1.10;1.00;;;18.20;99.90;;;;;;5034309;28;20053;-84
2023/05/15 06:34:45;;;;;;;4.38;0.80;;;18.00;99.90;;;;;;5036845;28;20045;-84
2023/05/15 06:37:11;;;;;;;1.40;1.15;;;17.90;99.90;;;;;;5034422;28;20048;-84
2023/05/15 06:39:37;;;;;;;1.65;0.65;;;17.70;99.90;;;;;;5030837;28;20087;-83
2023/05/15 06:42:03;;;;;;;0.17;0.17;;;17.80;99.90;;;;;;5041246;28;20479;-83
2023/05/15 06:44:30;;;;;;;0.75;0.45;;;18.20;99.90;;;;;;5046579;28;20049;-85
2023/05/15 06:46:55;;;;;;;0.30;0.30;;;18.90;99.90;;;;;;5044201;28;20044;-85
2023/05/15 06:49:21;;;;;;;1.13;0.63;;;18.80;99.90;;;;;;5046333;28;20049;-84
2023/05/15 06:51:47;;;;;;;0.75;0.70;;;19.30;99.90;;;;;;5045298;28;20114;-85
2023/05/15 06:54:13;;;;;;;0.85;0.63;;;18.80;99.90;;;;;;5044697;28;20384;-85
2023/05/15 06:56:38;;;;;;;0.52;0.47;;;19.00;99.90;;;;;;5044306;28;20406;-85
2023/05/15 06:59:04;;;;;;;2.45;1.20;;;18.90;99.90;;;;;;5044143;28;20098;-85
2023/05/15 07:01:30;;;;;;;1.55;0.57;;;19.40;99.90;;;;;;5043350;28;20503;-85
2023/05/15 07:03:56;;;;;;;1.10;1.00;;;20.10;99.90;;;;;;5043256;28;20048;-86
2023/05/15 07:06:22;;;;;;;0.30;0.20;;;20.40;99.90;;;;;;5044867;28;20479;-85
2023/05/15 07:08:48;;;;;;;0.93;0.90;;;20.90;99.90;;;;;;5045727;28;20048;-85
2023/05/15 07:11:14;;;;;;;2.05;1.25;;;20.70;99.90;;;;;;5044676;28;20071;-84
2023/05/15 07:13:39;;;;;;;1.23;1.08;;;20.70;99.90;;;;;;5045077;28;20041;-84
2023/05/15 07:16:05;;;;;;;1.65;1.27;;;20.60;99.90;;;;;;5045897;28;20555;-85
2023/05/15 07:18:30;;;;;;;2.20;1.02;;;20.30;99.90;;;;;;5039396;28;20060;-84
2023/05/15 07:20:56;;;;;;;0.98;0.93;;;19.90;99.90;;;;;;5025775;28;20784;-84
2023/05/15 07:23:22;;;;;;;0.57;0.57;;;19.20;99.90;;;;;;5025784;28;20045;-84
2023/05/15 07:25:47;;;;;;;2.75;1.00;;;18.90;99.90;;;;;;5028068;28;20641;-85
2023/05/15 07:28:13;;;;;;;0.10;0.10;;;19.00;99.90;;;;;;5027943;28;20379;-84
2023/05/15 07:30:39;;;;;;;0.98;0.85;;;19.50;99.90;;;;;;5029604;28;20052;-84
2023/05/15 07:33:05;;;;;;;0.43;0.43;;;20.10;99.90;;;;;;5029720;28;20508;-83
2023/05/15 07:35:30;;;;;;;1.30;0.63;;;20.50;99.90;;;;;;5029935;28;20058;-83
2023/05/15 07:37:56;;;;;;;0.30;0.30;;;21.10;99.90;;;;;;5029840;28;20091;-84
2023/05/15 07:40:22;;;;;;;0.95;0.55;;;21.40;99.90;;;;;;5046652;28;20037;-84
2023/05/15 07:42:47;;;;;;;2.00;1.48;;;20.70;99.90;;;;;;5042176;28;20084;-86
2023/05/15 07:45:13;;;;;;;0.55;0.55;;;21.70;99.90;;;;;;5029714;28;20092;-85
2023/05/15 07:47:44;;;;;;;2.05;1.35;;;21.20;99.90;;;;;;5028302;28;20132;-85
2023/05/15 07:50:09;;;;;;;1.13;0.75;;;21.90;99.90;;;;;;5034424;28;20052;-85
2023/05/15 07:52:35;;;;;;;3.47;1.40;;;22.20;99.90;;;;;;5048324;28;20063;-84
2023/05/15 07:55:01;;;;;;;1.48;0.82;;;21.70;99.90;;;;;;5047826;28;20404;-84
2023/05/15 07:57:26;;;;;;;0.98;0.85;;;22.30;99.90;;;;;;5046679;28;20091;-85
2023/05/15 07:59:52;;;;;;;0.55;0.55;;;22.80;99.90;;;;;;5037477;28;20045;-85
2023/05/15 08:02:17;;;;;;;2.08;0.93;;;23.00;99.90;;;;;;5047454;28;20049;-85
2023/05/15 08:04:43;;;;;;;1.08;0.75;;;22.00;99.90;;;;;;5048638;28;20045;-84
2023/05/15 08:07:09;;;;;;;0.30;0.30;;;22.00;99.90;;;;;;5046422;28;20407;-85
2023/05/15 08:09:34;;;;;;;1.70;1.50;;;21.70;99.90;;;;;;5043523;28;20057;-86
2023/05/15 08:12:16;;;;;;;0.85;0.75;;;21.00;99.90;;;;;;5071318;28;20040;-84
2023/05/15 08:14:42;;;;;;;0.20;0.20;;;21.40;99.90;;;;;;5071139;28;20094;-84
2023/05/15 08:17:08;;;;;;;1.95;0.90;;;22.60;99.90;;;;;;5054343;28;20033;-84
2023/05/15 08:19:33;;;;;;;0.10;0.10;;;22.20;99.90;;;;;;5070545;28;20072;-84
2023/05/15 08:21:59;;;;;;;2.00;0.73;;;22.50;99.90;;;;;;5063899;28;20038;-85
2023/05/15 08:24:24;;;;;;;0.40;0.35;;;22.60;99.90;;;;;;5059645;28;20029;-84
2023/05/15 08:26:50;;;;;;;0.43;0.40;;;23.20;99.90;;;;;;5071127;28;20067;-83
2023/05/15 08:29:16;;;;;;;3.10;0.80;;;23.10;99.90;;;;;;5066897;28;20448;-84
2023/05/15 08:31:42;;;;;;;0.68;0.57;;;21.60;99.90;;;;;;5050268;28;20049;-84
2023/05/15 08:34:07;;;;;;;0.63;0.52;;;21.20;99.90;;;;;;5047064;28;20124;-85
2023/05/15 08:36:33;;;;;;;0.20;0.20;;;21.50;99.90;;;;;;5048065;28;20041;-84
2023/05/15 08:38:58;;;;;;;1.45;0.93;;;22.10;99.90;;;;;;5051446;28;20044;-85
2023/05/15 08:41:36;;;;;;;0.20;0.20;;;22.40;99.90;;;;;;5050690;28;20048;-85
2023/05/15 08:44:03;;;;;;;0.75;0.70;;;22.50;99.90;;;;;;5048805;28;20049;-85
2023/05/15 08:46:31;;;;;;;0.08;0.08;;;23.40;99.90;;;;;;5073033;28;20037;-85
2023/05/15 08:48:58;;;;;;;0.98;0.65;;;23.90;99.90;;;;;;5074048;28;20037;-86
2023/05/15 08:51:23;;;;;;;0.22;0.20;;;24.50;99.90;;;;;;5049918;28;20041;-85
2023/05/15 08:53:49;;;;;;;0.17;0.15;;;25.30;99.90;;;;;;5052102;28;20044;-85
2023/05/15 08:56:15;;;;;;;2.53;0.98;;;26.00;99.90;;;;;;5051260;28;20064;-85
2023/05/15 08:58:42;;;;;;;1.48;0.20;;;25.70;99.90;;;;;;5047601;28;20052;-83
2023/05/15 09:01:08;;;;;;;0.38;0.28;;;26.00;99.90;;;;;;5035591;28;20045;-84
2023/05/15 09:03:34;;;;;;;0.20;0.20;;;25.80;99.90;;;;;;5029300;28;20049;-85
2023/05/15 09:06:00;;;;;;;1.15;0.77;;;26.30;99.90;;;;;;5030423;28;20151;-85
2023/05/15 09:08:30;;;;;;;0.00;0.00;;;25.30;99.90;;;;;;5030146;28;20110;-85
2023/05/15 09:10:57;;;;;;;0.20;0.20;;;25.50;99.90;;;;;;5044849;28;20056;-85
2023/05/15 09:13:23;;;;;;;0.38;0.32;;;25.30;99.90;;;;;;5051094;28;20503;-84
2023/05/15 09:15:49;;;;;;;5.22;1.00;;;25.60;99.90;;;;;;5048880;28;20037;-84
2023/05/15 09:18:16;;;;;;;1.40;0.82;;;25.70;99.90;;;;;;5049131;28;20056;-85
2023/05/15 09:20:41;;;;;;;0.75;0.60;;;25.80;99.90;;;;;;5037811;28;20053;-85
2023/05/15 09:23:26;;;;;;;0.90;0.57;;;24.90;91.90;;;;;;5028064;28;20550;-85
2023/05/15 09:25:54;;;;;;;0.40;0.40;;;25.50;99.90;;;;;;5031668;28;20045;-85
2023/05/15 09:28:31;;;;;;;0.43;0.43;;;25.90;99.90;;;;;;5032092;28;20046;-85
2023/05/15 09:31:02;;;;;;;1.20;0.95;;;25.70;99.90;;;;;;5045467;28;20601;-84
2023/05/15 09:33:36;;;;;;;0.00;0.00;;;24.90;85.90;;;;;;5052284;28;20041;-85
2023/05/15 09:36:04;;;;;;;0.90;0.50;;;25.30;99.90;;;;;;5049602;28;20385;-85
2023/05/15 09:38:32;;;;;;;0.80;0.65;;;25.70;99.90;;;;;;5046439;28;20041;-86
2023/05/15 09:41:03;;;;;;;0.45;0.32;;;25.50;93.20;;;;;;5046470;28;20071;-84
2023/05/15 09:43:33;;;;;;;1.50;0.68;;;24.60;73.40;;;;;;5047529;28;20053;-85
2023/05/15 09:45:58;;;;;;;0.38;0.20;;;24.40;67.00;;;;;;5051182;28;20052;-85
2023/05/15 09:48:24;;;;;;;0.55;0.40;;;24.60;84.10;;;;;;5051164;28;20037;-85
2023/05/15 09:50:50;;;;;;;1.10;0.88;;;24.70;84.30;;;;;;5052375;28;20069;-85
2023/05/15 09:53:16;;;;;;;1.50;0.90;;;24.50;77.10;;;;;;5050640;28;20174;-85
2023/05/15 09:55:42;;;;;;;0.32;0.32;;;24.60;74.60;;;;;;5049391;28;20081;-84
2023/05/15 09:58:10;;;;;;;0.25;0.25;;;24.40;65.20;;;;;;5050996;28;20041;-84
2023/05/15 10:00:38;;;;;;;0.43;0.30;;;24.50;82.70;;;;;;5051717;28;20049;-85
2023/05/15 10:03:05;;;;;;;0.00;0.00;;;24.20;73.10;;;;;;5050491;28;20052;-86
2023/05/15 10:05:31;;;;;;;1.08;0.77;;;23.70;52.50;;;;;;5048440;28;20041;-84
2023/05/15 10:07:57;;;;;;;0.43;0.40;;;23.20;48.10;;;;;;5047376;28;20480;-85
2023/05/15 10:10:24;;;;;;;0.75;0.63;;;23.40;34.20;;;;;;5044708;28;20148;-84
2023/05/15 10:12:51;;;;;;;2.10;0.35;;;22.50;29.60;;;;;;5046386;28;20037;-85
2023/05/15 10:15:18;;;;;;;0.80;0.60;;;22.50;34.80;;;;;;5046728;28;20052;-84
2023/05/15 10:17:46;;;;;;;1.35;0.57;;;22.20;28.10;;;;;;5045600;28;20053;-85
2023/05/15 10:20:12;;;;;;;0.93;0.75;;;22.20;30.50;;;;;;5046117;28;20080;-85
2023/05/15 10:22:43;;;;;;;1.75;0.60;;;21.70;18.70;;;;;;5046393;28;20510;-86
2023/05/15 10:25:21;;;;;;;0.88;0.88;;;21.70;20.70;;;;;;5047250;28;20096;-84
2023/05/15 10:27:50;;;;;;;0.55;0.38;;;22.10;36.40;;;;;;5045671;28;20123;-85
2023/05/15 10:30:16;;;;;;;1.08;0.70;;;22.40;38.60;;;;;;5047648;28;20107;-85
2023/05/15 10:32:43;;;;;;;0.13;0.13;;;22.60;43.50;;;;;;5046458;28;20053;-84
2023/05/15 10:35:10;;;;;;;8.63;0.90;;;22.50;27.80;;;;;;5045829;28;20558;-85
2023/05/15 10:37:37;;;;;;;0.55;0.47;;;22.20;30.50;;;;;;5045309;28;20432;-85
2023/05/15 10:40:07;;;;;;;0.93;0.50;;;21.70;22.70;;;;;;5046223;28;20388;-84
2023/05/15 10:42:34;;;;;;;0.43;0.35;;;21.80;24.90;;;;;;5044798;28;20060;-85
2023/05/15 10:45:01;;;;;;;1.38;0.98;;;22.00;28.30;;;;;;5044929;28;20053;-85
2023/05/15 10:47:31;;;;;;;1.60;0.57;;;21.70;28.30;;;;;;5043294;28;20052;-85
2023/05/15 10:49:58;;;;;;;0.55;0.50;;;22.00;35.40;;;;;;5041609;28;20439;-85
2023/05/15 10:52:24;;;;;;;0.93;0.75;;;22.90;58.30;;;;;;5041915;28;20041;-85
2023/05/15 10:54:52;;;;;;;0.15;0.10;;;22.60;45.20;;;;;;5043096;28;20048;-84
2023/05/15 10:57:20;;;;;;;0.22;0.22;;;22.70;48.50;;;;;;5042914;28;20057;-85
2023/05/15 10:59:45;;;;;;;0.47;0.47;;;22.20;37.00;;;;;;5027004;28;20243;-83
2023/05/15 11:02:29;;;;;;;0.93;0.75;;;22.00;38.10;;;;;;5046858;28;20082;-84
2023/05/15 11:05:05;;;;;;;0.82;0.73;;;21.80;28.70;;;;;;5048456;28;20044;-84
2023/05/15 11:07:31;;;;;;;;;;;21.30;16.20;;;;;;5048060;28;20072;-84
2023/05/15 11:09:57;;;;;;;0.20;0.20;;;21.00;12.10;;;;;;5049607;28;20016;-84
2023/05/15 11:12:23;;;;;;;1.00;0.68;;;20.80;12.50;;;;;;5050695;28;20120;-84
2023/05/15 11:14:54;;;;;;;2.08;0.90;;;21.30;24.50;;;;;;5048192;28;20041;-83
2023/05/15 11:17:22;;;;;;;1.95;0.75;;;21.60;32.70;;;;;;5046891;28;20125;-84
2023/05/15 11:19:48;;;;;;;1.30;0.43;;;21.70;23.30;;;;;;5046969;28;20041;-84
2023/05/15 11:22:18;;;;;;;1.52;1.08;;;21.40;23.70;;;;;;5047219;28;20392;-85
2023/05/15 11:24:52;;;;;;;0.75;0.40;;;21.40;20.60;;;;;;5046752;28;20433;-84
2023/05/15 11:27:37;;;;;;;0.22;0.22;;;22.00;36.50;;;;;;5048481;28;20053;-84
2023/05/15 11:30:10;;;;;;;0.30;0.28;;;22.20;34.90;;;;;;5048088;28;20045;-84
2023/05/15 11:32:55;;;;;;;0.32;0.22;;;22.30;40.00;;;;;;5047061;28;20051;-84
2023/05/15 11:35:23;;;;;;;0.47;0.45;;;22.80;57.70;;;;;;5047396;28;20130;-84
2023/05/15 11:38:09;;;;;;;0.63;0.50;;;23.00;52.60;;;;;;5046442;28;20140;-84
2023/05/15 11:40:47;;;;;;;;;;;22.80;48.50;;;;;;5045000;28;20049;-84
2023/05/15 11:43:17;;;;;;;3.40;1.23;;;23.10;53.80;;;;;;5046054;28;19977;-84
2023/05/15 11:45:45;;;;;;;0.45;0.45;;;23.00;54.90;;;;;;5046765;28;20044;-85
2023/05/15 11:48:16;;;;;;;1.20;0.90;;;23.50;65.50;;;;;;5046775;28;20135;-84
2023/05/15 11:50:43;;;;;;;0.63;0.60;;;23.00;51.60;;;;;;5048560;28;20375;-84
2023/05/15 11:53:09;;;;;;;0.80;0.65;;;24.00;75.30;;;;;;5049010;28;20045;-84
2023/05/15 11:55:36;;;;;;;0.98;0.73;;;23.90;69.10;;;;;;5071076;28;20064;-84
2023/05/15 11:58:03;;;;;;;2.15;0.82;;;23.70;61.30;;;;;;5072896;28;20032;-84
2023/05/15 12:00:29;;;;;;;0.30;0.30;;;24.40;62.50;;;;;;5073201;28;20356;-85
2023/05/15 12:02:55;;;;;;;2.42;1.00;;;25.50;90.10;;;;;;5072587;28;20035;-87
2023/05/15 12:05:21;;;;;;;0.30;0.30;;;25.30;90.00;;;;;;5072856;28;20512;-84
2023/05/15 12:07:47;;;;;;;0.65;0.43;;;24.40;65.80;;;;;;5072292;28;20021;-83
2023/05/15 12:10:13;;;;;;;0.40;0.38;;;23.50;46.80;;;;;;5072882;28;20032;-83
2023/05/15 12:12:48;;;;;;;0.35;0.30;;;24.00;60.00;;;;;;5070549;28;20227;-84
2023/05/15 12:15:15;;;;;;;0.10;0.08;;;24.80;82.00;;;;;;5072109;28;20051;-83
2023/05/15 12:17:43;;;;;;;0.15;0.15;;;24.40;68.30;;;;;;5058073;28;20370;-84
2023/05/15 12:20:17;;;;;;;0.20;0.20;;;24.90;69.00;;;;;;5049765;28;20121;-84
2023/05/15 12:22:43;;;;;;;0.28;0.28;;;24.20;52.10;;;;;;5050664;28;20049;-83
2023/05/15 12:25:14;;;;;;;1.33;0.73;;;23.50;41.10;;;;;;5049734;28;20132;-84
2023/05/15 12:27:40;;;;;;;1.85;1.08;;;22.70;28.80;;;;;;5048051;28;20158;-84
2023/05/15 12:30:06;;;;;;;0.73;0.57;;;22.50;25.70;;;;;;5047955;28;20064;-84
2023/05/15 12:32:36;;;;;;;0.47;0.47;;;22.60;27.50;;;;;;5041549;28;20072;-84
2023/05/15 12:35:03;;;;;;;0.55;0.55;;;22.90;34.10;;;;;;5031296;28;20385;-84
2023/05/15 12:37:34;;;;;;;0.55;0.45;;;22.60;28.10;;;;;;5043535;28;20067;-84
2023/05/15 12:40:10;;;;;;;3.28;1.35;;;23.20;62.00;;;;;;5056029;28;20060;-84
2023/05/15 12:42:43;;;;;;;0.82;0.70;;;23.50;47.50;;;;;;5046486;28;20076;-84
2023/05/15 12:45:14;;;;;;;0.85;0.70;;;23.10;37.90;;;;;;5033738;28;20041;-82
2023/05/15 12:47:41;;;;;;;1.20;0.85;;;24.10;65.10;;;;;;5033125;28;20053;-83
2023/05/15 12:50:20;;;;;;;2.15;0.80;;;24.60;68.30;;;;;;5039051;28;20037;-82
2023/05/15 12:52:49;;;;;;;3.00;0.98;;;24.40;67.60;;;;;;5037069;28;20057;-83